Terminal Aerodrome Forecast
Issued by NWS

Home | Current Version | Previous Version | Text Only | Print | Product List | Glossary On
Versions: 1 2 3 4 5 6 7 8 9 10 11 12 13 14 15 16
011
FTUS43 KJKL 242339
TAFSME
TAF
KSME 242339Z 2500/2524 17009KT P6SM VCTS SCT025 OVC100CB
     FM250300 19011G20KT P6SM VCTS SCT025 OVC080CB
     FM250600 20013G23KT 5SM SHRA BR VCTS OVC060CB
     FM250800 22013G22KT 6SM SHRA BR SCT025 OVC050
     FM251200 26013G22KT P6SM VCSH OVC025
     FM251400 28010KT P6SM BKN080=

USA.gov is the U.S. government's official web portal to all federal, state and local government web resources and services.